Time;durP1;ratioP1;P1;durP2;ratioP2;P2;SDS_P1;SDS_P2;PMS_P1;PMS_P2;Temp;Humidity;BMP_temperature;BMP_pressure;BME280_temperature;BME280_humidity;BME280_pressure;Samples;Min_cycle;Max_cycle;Signal;HPM_P1;HPM_P2
2023/08/10 00:01:41;;;;;;;2.93;2.17;;;17.90;85.20;;;;;;5034237;28;20466;-59
2023/08/10 00:04:07;;;;;;;6.40;2.40;;;17.90;85.50;;;;;;5034443;28;20430;-59
2023/08/10 00:06:34;;;;;;;3.80;1.77;;;17.80;85.50;;;;;;5034369;28;20446;-59
2023/08/10 00:09:01;;;;;;;2.63;2.07;;;17.80;86.10;;;;;;5034040;28;20979;-59
2023/08/10 00:11:28;;;;;;;5.77;2.03;;;17.80;86.30;;;;;;5034197;28;20474;-59
2023/08/10 00:13:54;;;;;;;3.40;1.50;;;17.70;86.50;;;;;;5034233;28;20446;-59
2023/08/10 00:16:21;;;;;;;2.40;1.80;;;17.70;86.50;;;;;;5034198;28;20551;-59
2023/08/10 00:18:49;;;;;;;2.13;1.93;;;17.70;86.90;;;;;;5034273;28;20450;-59
2023/08/10 00:21:16;;;;;;;3.10;1.70;;;17.60;86.90;;;;;;5034042;28;20462;-59
2023/08/10 00:23:42;;;;;;;2.10;1.83;;;17.60;87.50;;;;;;5034206;28;20450;-59
2023/08/10 00:26:09;;;;;;;3.20;1.50;;;17.60;87.60;;;;;;5034458;28;20446;-59
2023/08/10 00:28:36;;;;;;;3.33;1.80;;;17.50;87.80;;;;;;5033996;28;20454;-59
2023/08/10 00:31:04;;;;;;;4.07;1.90;;;17.50;88.40;;;;;;5033977;28;20474;-59
2023/08/10 00:33:31;;;;;;;2.63;1.73;;;17.40;88.40;;;;;;5034005;28;20493;-59
2023/08/10 00:36:01;;;;;;;2.57;1.70;;;17.40;88.60;;;;;;5033819;28;20528;-59
2023/08/10 00:38:28;;;;;;;1.70;1.60;;;17.40;88.90;;;;;;5033889;28;20451;-59
2023/08/10 00:40:54;;;;;;;1.43;1.30;;;17.40;89.00;;;;;;5033851;28;20838;-59
2023/08/10 00:43:22;;;;;;;3.20;1.90;;;17.40;89.30;;;;;;5033753;28;20446;-59
2023/08/10 00:45:49;;;;;;;2.30;1.87;;;17.40;89.80;;;;;;5033670;28;20952;-59
2023/08/10 00:48:15;;;;;;;2.10;1.90;;;17.30;89.80;;;;;;5033755;28;20449;-59
2023/08/10 00:50:42;;;;;;;2.50;1.93;;;17.30;90.00;;;;;;5034293;28;20466;-59
2023/08/10 00:53:11;;;;;;;2.97;2.00;;;17.30;90.10;;;;;;5033374;28;20442;-59
2023/08/10 00:55:37;;;;;;;1.80;1.67;;;17.30;90.40;;;;;;5033331;28;20911;-59
2023/08/10 00:58:04;;;;;;;2.10;1.73;;;17.30;90.60;;;;;;5033676;28;20450;-59
2023/08/10 01:00:31;;;;;;;2.53;1.80;;;17.20;90.50;;;;;;5033555;28;20474;-59
2023/08/10 01:02:58;;;;;;;4.80;1.80;;;17.20;90.60;;;;;;5033267;28;20461;-59
2023/08/10 01:05:27;;;;;;;3.27;1.60;;;17.10;90.70;;;;;;5033589;28;20844;-59
2023/08/10 01:08:02;;;;;;;1.93;1.83;;;17.10;90.80;;;;;;5033237;28;20916;-59
2023/08/10 01:10:38;;;;;;;1.90;1.37;;;17.10;90.90;;;;;;5033460;28;20470;-59
2023/08/10 01:13:10;;;;;;;2.10;1.90;;;17.10;91.20;;;;;;5033571;28;20425;-59
2023/08/10 01:15:41;;;;;;;8.27;1.93;;;17.10;91.40;;;;;;5033578;28;20484;-59
2023/08/10 01:18:13;;;;;;;2.00;1.90;;;17.10;91.70;;;;;;5033327;28;20524;-59
2023/08/10 01:20:41;;;;;;;3.70;2.03;;;17.00;92.00;;;;;;5033350;28;20466;-59
2023/08/10 01:23:15;;;;;;;5.07;2.10;;;17.00;92.10;;;;;;5033040;28;20877;-59
2023/08/10 01:25:44;;;;;;;4.33;1.90;;;17.00;92.20;;;;;;5033564;28;20442;-59
2023/08/10 01:28:13;;;;;;;3.80;2.20;;;17.00;92.30;;;;;;5033515;28;20450;-59
2023/08/10 01:30:41;;;;;;;2.57;2.00;;;17.10;92.40;;;;;;5033772;28;20470;-59
2023/08/10 01:33:08;;;;;;;6.10;3.23;;;17.10;92.60;;;;;;5033437;28;20501;-59
2023/08/10 01:35:36;;;;;;;4.57;1.90;;;17.10;92.70;;;;;;5033605;28;20442;-59
2023/08/10 01:38:03;;;;;;;2.53;2.33;;;17.10;92.70;;;;;;5033326;28;20908;-59
2023/08/10 01:40:30;;;;;;;4.40;2.00;;;17.10;92.70;;;;;;5033517;28;20479;-59
2023/08/10 01:42:58;;;;;;;5.50;2.30;;;17.10;92.80;;;;;;5033170;28;20971;-59
2023/08/10 01:45:25;;;;;;;2.47;1.60;;;17.20;92.80;;;;;;5033633;28;20438;-59
2023/08/10 01:47:55;;;;;;;2.63;1.70;;;17.20;92.70;;;;;;5033590;28;20446;-59
2023/08/10 01:50:27;;;;;;;2.80;2.00;;;17.20;92.60;;;;;;5033434;28;20470;-59
2023/08/10 01:52:57;;;;;;;1.93;1.80;;;17.20;92.60;;;;;;5033168;28;20921;-59
2023/08/10 01:55:24;;;;;;;2.77;1.47;;;17.20;92.80;;;;;;5033206;28;20419;-59
2023/08/10 01:57:51;;;;;;;2.10;1.90;;;17.20;92.40;;;;;;5033394;28;20482;-59
2023/08/10 02:00:19;;;;;;;3.00;2.00;;;17.10;92.40;;;;;;5032994;28;20676;-59
2023/08/10 02:02:46;;;;;;;2.37;2.10;;;17.20;92.50;;;;;;5032993;28;20462;-59
2023/08/10 02:05:13;;;;;;;2.07;1.90;;;17.10;92.30;;;;;;5033033;28;20442;-59
2023/08/10 02:07:41;;;;;;;3.00;1.60;;;17.10;92.40;;;;;;5035326;28;20473;-59
2023/08/10 02:10:09;;;;;;;3.43;1.50;;;17.10;92.50;;;;;;5036828;28;20470;-59
2023/08/10 02:12:36;;;;;;;2.43;1.90;;;17.10;92.70;;;;;;5036479;28;20454;-62
2023/08/10 02:15:03;;;;;;;2.60;2.10;;;17.10;93.00;;;;;;5036713;28;20455;-59
2023/08/10 02:17:35;;;;;;;1.67;1.57;;;17.10;93.20;;;;;;5037306;28;20478;-59
2023/08/10 02:20:04;;;;;;;2.10;2.00;;;17.10;93.20;;;;;;5036838;28;20520;-59
2023/08/10 02:22:31;;;;;;;4.00;1.90;;;17.20;93.30;;;;;;5036721;28;20442;-59
2023/08/10 02:24:58;;;;;;;3.33;2.07;;;17.10;93.50;;;;;;5036193;28;20956;-59
2023/08/10 02:27:24;;;;;;;3.83;1.80;;;17.20;93.60;;;;;;5036577;28;20461;-59
2023/08/10 02:29:51;;;;;;;3.27;1.77;;;17.20;93.70;;;;;;5036515;28;20454;-59
2023/08/10 02:32:18;;;;;;;2.77;2.17;;;17.20;93.70;;;;;;5036551;28;20453;-59
2023/08/10 02:34:46;;;;;;;3.67;2.10;;;17.20;93.70;;;;;;5036113;28;20446;-59
2023/08/10 02:37:12;;;;;;;3.90;2.30;;;17.20;93.70;;;;;;5036446;28;20485;-59
2023/08/10 02:39:39;;;;;;;3.50;1.77;;;17.20;93.60;;;;;;5036786;28;20446;-61
2023/08/10 02:42:06;;;;;;;1.93;1.83;;;17.10;93.40;;;;;;5036186;28;20439;-59
2023/08/10 02:44:33;;;;;;;2.20;1.70;;;17.10;93.30;;;;;;5036251;28;20514;-59
2023/08/10 02:46:59;;;;;;;2.23;1.77;;;17.10;93.20;;;;;;5035951;28;20434;-59
2023/08/10 02:49:27;;;;;;;2.50;1.87;;;17.10;93.20;;;;;;5036263;28;20450;-59
2023/08/10 02:51:55;;;;;;;5.30;1.93;;;17.10;93.20;;;;;;5035714;28;20470;-59
2023/08/10 02:54:22;;;;;;;2.23;1.90;;;17.00;93.10;;;;;;5035506;28;20944;-59
2023/08/10 02:56:48;;;;;;;4.07;1.83;;;17.00;93.20;;;;;;5035788;28;20482;-59
2023/08/10 02:59:15;;;;;;;2.27;1.40;;;17.00;93.30;;;;;;5035788;28;20446;-59
2023/08/10 03:01:45;;;;;;;4.77;2.17;;;16.90;93.40;;;;;;5035364;28;20464;-59
2023/08/10 03:04:12;;;;;;;4.60;1.70;;;16.90;93.50;;;;;;5035581;28;20470;-59
2023/08/10 03:06:38;;;;;;;2.40;1.90;;;16.70;93.70;;;;;;5035512;28;20521;-59
2023/08/10 03:09:07;;;;;;;2.30;1.83;;;16.70;94.00;;;;;;5035464;28;20553;-59
2023/08/10 03:11:34;;;;;;;3.70;1.80;;;16.60;94.20;;;;;;5035321;28;20899;-59
2023/08/10 03:14:00;;;;;;;2.57;1.77;;;16.50;94.30;;;;;;5035054;28;20492;-59
2023/08/10 03:16:27;;;;;;;3.00;2.20;;;16.50;94.50;;;;;;5035840;28;20446;-59
2023/08/10 03:18:54;;;;;;;5.73;1.83;;;16.50;94.60;;;;;;5035248;28;20447;-59
2023/08/10 03:21:21;;;;;;;2.50;1.80;;;16.50;94.60;;;;;;5035149;28;20584;-59
2023/08/10 03:23:47;;;;;;;2.60;2.40;;;16.50;94.40;;;;;;5035010;28;20442;-59
2023/08/10 03:26:15;;;;;;;1.80;1.70;;;16.50;94.30;;;;;;5035041;28;20466;-59
2023/08/10 03:28:42;;;;;;;8.30;2.33;;;16.50;94.20;;;;;;5035129;28;20450;-59
2023/08/10 03:31:12;;;;;;;2.93;1.97;;;16.50;94.20;;;;;;5034886;28;20466;-59
2023/08/10 03:33:39;;;;;;;1.90;1.73;;;16.50;94.10;;;;;;5034714;28;20485;-59
2023/08/10 03:36:06;;;;;;;6.90;1.90;;;16.50;94.20;;;;;;5035025;28;20492;-59
2023/08/10 03:38:33;;;;;;;4.13;2.17;;;16.50;94.20;;;;;;5034894;28;20482;-59
2023/08/10 03:40:59;;;;;;;2.40;2.20;;;16.50;94.10;;;;;;5034768;28;20473;-59
2023/08/10 03:43:27;;;;;;;1.90;1.77;;;16.50;94.00;;;;;;5034937;28;20449;-59
2023/08/10 03:45:54;;;;;;;4.23;2.10;;;16.50;93.90;;;;;;5034950;28;20445;-59
2023/08/10 03:48:21;;;;;;;3.27;2.27;;;16.40;93.70;;;;;;5034500;28;20932;-59
2023/08/10 03:50:48;;;;;;;2.00;1.80;;;16.40;93.90;;;;;;5034691;28;20834;-59
2023/08/10 03:53:15;;;;;;;3.30;2.37;;;16.40;94.00;;;;;;5034651;28;20454;-58
2023/08/10 03:55:42;;;;;;;1.83;1.70;;;16.40;94.10;;;;;;5034612;28;20443;-59
2023/08/10 03:58:08;;;;;;;6.30;2.10;;;16.30;94.00;;;;;;5034375;28;20540;-59
2023/08/10 04:00:36;;;;;;;4.10;2.10;;;16.30;94.10;;;;;;5034141;28;20976;-59
2023/08/10 04:03:03;;;;;;;3.47;2.47;;;16.30;94.30;;;;;;5034087;28;20486;-59
2023/08/10 04:05:30;;;;;;;3.40;2.17;;;16.20;94.40;;;;;;5034414;28;20450;-59
2023/08/10 04:07:57;;;;;;;2.00;1.90;;;16.20;94.50;;;;;;5035251;28;20516;-59
2023/08/10 04:10:24;;;;;;;2.13;1.80;;;16.20;94.40;;;;;;5034255;28;20468;-59
2023/08/10 04:12:51;;;;;;;2.83;2.20;;;16.20;94.40;;;;;;5033915;28;20836;-59
2023/08/10 04:15:18;;;;;;;1.93;1.83;;;16.20;94.40;;;;;;5034294;28;20451;-59
2023/08/10 04:17:46;;;;;;;2.00;1.90;;;16.10;94.40;;;;;;5034309;28;20486;-58
2023/08/10 04:20:14;;;;;;;2.70;1.93;;;16.10;94.40;;;;;;5034421;28;20466;-59
2023/08/10 04:22:41;;;;;;;2.60;2.07;;;16.10;94.60;;;;;;5035099;28;20545;-59
2023/08/10 04:25:08;;;;;;;1.87;1.70;;;16.10;94.60;;;;;;5034076;28;20450;-59
2023/08/10 04:27:35;;;;;;;2.63;2.00;;;16.10;95.00;;;;;;5033798;28;20810;-59
2023/08/10 04:30:04;;;;;;;2.63;2.30;;;16.10;94.70;;;;;;5033088;28;20976;-59
2023/08/10 04:32:30;;;;;;;3.60;2.10;;;16.10;94.70;;;;;;5033795;28;20450;-59
2023/08/10 04:34:58;;;;;;;4.43;2.57;;;16.10;94.80;;;;;;5033829;28;20454;-58
2023/08/10 04:37:25;;;;;;;2.53;2.23;;;16.10;94.90;;;;;;5033719;28;20478;-58
2023/08/10 04:39:52;;;;;;;4.90;2.57;;;16.10;95.00;;;;;;5033625;28;20443;-58
2023/08/10 04:42:18;;;;;;;2.03;1.83;;;16.10;95.20;;;;;;5033745;28;20454;-58
2023/08/10 04:44:45;;;;;;;2.90;2.47;;;16.10;95.30;;;;;;5033372;28;20849;-59
2023/08/10 04:47:12;;;;;;;2.90;2.60;;;16.10;95.50;;;;;;5033720;28;20443;-59
2023/08/10 04:49:39;;;;;;;3.67;3.03;;;16.20;95.90;;;;;;5033718;28;20466;-59
2023/08/10 04:52:07;;;;;;;5.47;2.90;;;16.20;96.00;;;;;;5033730;28;20446;-59
2023/08/10 04:54:34;;;;;;;7.60;3.30;;;16.30;96.10;;;;;;5033678;28;20450;-59
2023/08/10 04:57:00;;;;;;;9.57;3.70;;;16.30;96.10;;;;;;5033600;28;20442;-58
2023/08/10 04:59:27;;;;;;;7.00;3.90;;;16.40;96.60;;;;;;5033237;28;20928;-58
2023/08/10 05:01:54;;;;;;;7.17;4.00;;;16.40;96.50;;;;;;5033373;28;20505;-58
2023/08/10 05:04:21;;;;;;;5.40;3.57;;;16.50;96.70;;;;;;5033525;28;20427;-58
2023/08/10 05:06:47;;;;;;;6.70;4.33;;;16.60;97.00;;;;;;5033444;28;20438;-58
2023/08/10 05:09:16;;;;;;;5.67;4.13;;;16.70;97.20;;;;;;5033722;28;20435;-58
2023/08/10 05:11:43;;;;;;;8.00;4.07;;;16.70;97.30;;;;;;5033328;28;20494;-58
2023/08/10 05:14:10;;;;;;;10.60;4.30;;;16.80;97.30;;;;;;5033375;28;20450;-58
2023/08/10 05:16:36;;;;;;;6.83;4.30;;;16.80;97.10;;;;;;5033453;28;20447;-58
2023/08/10 05:19:03;;;;;;;7.37;3.60;;;16.90;96.80;;;;;;5032916;28;20474;-58
2023/08/10 05:21:30;;;;;;;7.50;3.60;;;16.80;96.70;;;;;;5033293;28;20474;-58
2023/08/10 05:23:57;;;;;;;8.00;4.17;;;16.70;96.60;;;;;;5033152;28;20996;-58
2023/08/10 05:26:25;;;;;;;6.23;4.67;;;16.60;96.40;;;;;;5032853;28;20439;-58
2023/08/10 05:28:51;;;;;;;5.83;3.70;;;16.60;96.60;;;;;;5033240;28;20443;-59
2023/08/10 05:31:18;;;;;;;7.43;3.20;;;16.60;96.80;;;;;;5033066;28;20482;-58
2023/08/10 05:33:45;;;;;;;5.60;3.83;;;16.70;97.10;;;;;;5033129;28;20476;-58
2023/08/10 05:36:12;;;;;;;4.80;3.80;;;16.80;97.10;;;;;;5033341;28;20445;-59
2023/08/10 05:38:39;;;;;;;7.27;3.93;;;16.80;96.90;;;;;;5032741;28;21030;-59
2023/08/10 05:41:06;;;;;;;5.93;3.80;;;16.90;96.90;;;;;;5033045;28;20502;-58
2023/08/10 05:43:34;;;;;;;6.13;3.93;;;16.90;97.10;;;;;;5036656;28;20465;-59
2023/08/10 05:46:01;;;;;;;7.83;3.67;;;17.00;97.30;;;;;;5036776;28;20446;-59
2023/08/10 05:48:28;;;;;;;9.57;4.23;;;17.00;97.10;;;;;;5036984;28;20534;-59
2023/08/10 05:50:54;;;;;;;3.83;3.40;;;17.10;97.00;;;;;;5036525;28;20841;-59
2023/08/10 05:53:22;;;;;;;6.07;4.23;;;17.10;96.80;;;;;;5036744;28;20442;-59
2023/08/10 05:55:50;;;;;;;5.33;3.20;;;17.20;97.10;;;;;;5036761;28;20496;-59
2023/08/10 05:58:16;;;;;;;9.03;3.67;;;17.20;97.40;;;;;;5036704;28;20482;-59
2023/08/10 06:00:44;;;;;;;7.93;4.00;;;17.20;96.70;;;;;;5036680;28;20474;-59
2023/08/10 06:03:11;;;;;;;3.90;3.50;;;17.30;96.70;;;;;;5036546;28;20454;-59
2023/08/10 06:05:38;;;;;;;7.80;4.00;;;17.30;96.50;;;;;;5036669;28;20452;-59
2023/08/10 06:08:07;;;;;;;7.20;3.70;;;17.30;96.40;;;;;;5036591;28;20469;-59
2023/08/10 06:10:34;;;;;;;6.20;3.23;;;17.30;96.20;;;;;;5036440;28;20501;-59
2023/08/10 06:13:02;;;;;;;5.57;3.13;;;17.40;96.50;;;;;;5036502;28;20446;-59
2023/08/10 06:15:28;;;;;;;4.57;2.57;;;17.40;96.30;;;;;;5036477;28;20501;-59
2023/08/10 06:17:56;;;;;;;5.70;2.70;;;17.50;96.20;;;;;;5036320;28;20599;-59
2023/08/10 06:20:23;;;;;;;8.37;2.20;;;17.50;95.30;;;;;;5036321;28;20498;-59
2023/08/10 06:22:50;;;;;;;2.67;1.70;;;17.60;95.00;;;;;;5035974;28;20969;-59
2023/08/10 06:25:17;;;;;;;5.83;1.70;;;17.60;94.80;;;;;;5036249;28;20458;-59
2023/08/10 06:27:44;;;;;;;2.20;1.70;;;17.70;94.40;;;;;;5036209;28;20470;-59
2023/08/10 06:30:13;;;;;;;4.93;1.73;;;17.80;94.50;;;;;;5036309;28;20474;-59
2023/08/10 06:32:40;;;;;;;5.23;1.90;;;17.90;94.70;;;;;;5036142;28;20453;-59
2023/08/10 06:35:09;;;;;;;6.13;1.70;;;18.00;94.40;;;;;;5036001;28;20500;-59
2023/08/10 06:37:36;;;;;;;4.60;2.20;;;18.10;94.50;;;;;;5035966;28;20501;-59
2023/08/10 06:40:07;;;;;;;7.33;2.13;;;18.20;95.00;;;;;;5035941;28;20543;-59
2023/08/10 06:42:33;;;;;;;5.67;1.80;;;18.30;94.40;;;;;;5035821;28;20489;-59
2023/08/10 06:45:00;;;;;;;7.07;2.40;;;18.40;92.60;;;;;;5035921;28;20451;-59
2023/08/10 06:47:27;;;;;;;2.23;1.20;;;18.40;92.30;;;;;;5035899;28;20453;-59
2023/08/10 06:49:53;;;;;;;3.13;1.27;;;18.50;91.50;;;;;;5035793;28;20439;-59
2023/08/10 06:52:22;;;;;;;3.80;1.40;;;18.40;90.90;;;;;;5035956;28;20450;-59
2023/08/10 06:54:48;;;;;;;8.60;1.80;;;18.50;90.60;;;;;;5035815;28;20823;-59
2023/08/10 06:57:15;;;;;;;7.73;1.57;;;18.60;90.80;;;;;;5035776;28;20491;-59
2023/08/10 06:59:42;;;;;;;8.07;1.90;;;18.70;89.40;;;;;;5035467;28;20490;-59
2023/08/10 07:02:09;;;;;;;3.43;0.93;;;18.80;90.20;;;;;;5035483;28;20459;-59
2023/08/10 07:04:35;;;;;;;3.27;1.10;;;18.80;89.00;;;;;;5035666;28;20796;-59
2023/08/10 07:07:03;;;;;;;4.17;2.10;;;18.90;88.10;;;;;;5035437;28;20454;-59
2023/08/10 07:09:31;;;;;;;3.37;1.37;;;19.00;88.30;;;;;;5035406;28;20500;-59
2023/08/10 07:11:57;;;;;;;1.90;1.30;;;19.20;89.10;;;;;;5035337;28;20516;-59
2023/08/10 07:14:24;;;;;;;3.20;1.40;;;19.30;90.10;;;;;;5035571;28;20442;-59
2023/08/10 07:16:51;;;;;;;3.90;2.10;;;19.50;89.50;;;;;;5035803;28;20454;-59
2023/08/10 07:19:18;;;;;;;1.43;1.20;;;19.70;89.40;;;;;;5035185;28;20903;-59
2023/08/10 07:21:45;;;;;;;1.53;1.13;;;19.90;89.00;;;;;;5035161;28;20489;-59
2023/08/10 07:24:12;;;;;;;3.77;1.30;;;20.10;89.40;;;;;;5034858;28;20940;-59
2023/08/10 07:26:40;;;;;;;1.80;0.90;;;20.30;87.90;;;;;;5035163;28;20504;-59
2023/08/10 07:29:07;;;;;;;3.00;1.00;;;20.50;82.70;;;;;;5035069;28;20446;-59
2023/08/10 07:31:34;;;;;;;9.00;1.57;;;20.60;78.60;;;;;;5034995;28;20466;-59
2023/08/10 07:34:01;;;;;;;5.63;1.27;;;20.70;79.90;;;;;;5035434;28;20884;-59
2023/08/10 07:36:28;;;;;;;1.13;0.67;;;20.90;78.70;;;;;;5034979;28;20492;-59
2023/08/10 07:38:55;;;;;;;8.43;1.60;;;21.10;77.20;;;;;;5034912;28;20485;-59
2023/08/10 07:41:22;;;;;;;3.10;1.43;;;21.30;73.10;;;;;;5034846;28;20557;-59
2023/08/10 07:43:50;;;;;;;1.63;0.87;;;21.60;71.90;;;;;;5034814;28;20450;-59
2023/08/10 07:46:17;;;;;;;1.57;1.07;;;21.80;72.60;;;;;;5034753;28;20443;-59
2023/08/10 07:48:45;;;;;;;6.03;1.30;;;22.10;73.20;;;;;;5034733;28;20446;-59
2023/08/10 07:51:12;;;;;;;2.70;1.00;;;22.30;73.50;;;;;;5034823;28;20470;-59
2023/08/10 07:53:39;;;;;;;3.37;0.90;;;22.60;70.50;;;;;;5034881;28;20467;-59
2023/08/10 07:56:06;;;;;;;3.60;0.90;;;22.70;62.20;;;;;;5034383;28;20971;-59
2023/08/10 07:58:32;;;;;;;0.90;0.80;;;22.80;63.10;;;;;;5034500;28;20482;-59
2023/08/10 08:01:00;;;;;;;3.50;1.23;;;22.90;63.20;;;;;;5034566;28;20474;-59
2023/08/10 08:03:27;;;;;;;2.63;1.00;;;23.10;65.60;;;;;;5034153;28;20459;-59
2023/08/10 08:05:54;;;;;;;1.97;0.90;;;23.30;65.60;;;;;;5033506;28;20446;-59
2023/08/10 08:08:20;;;;;;;1.23;0.73;;;23.60;63.80;;;;;;5034373;28;20442;-59
2023/08/10 08:10:48;;;;;;;1.90;0.80;;;23.70;59.50;;;;;;5034806;28;20463;-59
2023/08/10 08:13:15;;;;;;;2.00;0.90;;;23.90;58.10;;;;;;5034332;28;20446;-59
2023/08/10 08:15:43;;;;;;;1.60;1.00;;;24.10;55.40;;;;;;5033988;28;20858;-59
2023/08/10 08:18:46;;;;;;;1.87;0.93;;;24.30;54.10;;;;;;5034091;28;20455;-59
2023/08/10 08:21:14;;;;;;;2.77;1.10;;;24.50;53.60;;;;;;5034142;28;20465;-59
2023/08/10 08:23:41;;;;;;;3.80;1.10;;;24.70;52.40;;;;;;5034111;28;20454;-59
2023/08/10 08:26:08;;;;;;;3.20;1.00;;;24.80;53.10;;;;;;5034045;28;20454;-59
2023/08/10 08:28:35;;;;;;;3.37;1.37;;;24.90;54.30;;;;;;5033873;28;20447;-59
2023/08/10 08:31:02;;;;;;;5.90;1.10;;;25.10;55.80;;;;;;5033934;28;20466;-59
2023/08/10 08:33:29;;;;;;;1.73;1.17;;;25.30;55.30;;;;;;5033807;28;20442;-60
2023/08/10 08:35:57;;;;;;;2.53;1.20;;;25.50;53.80;;;;;;5033888;28;20445;-60
2023/08/10 08:38:25;;;;;;;2.83;1.00;;;25.70;51.30;;;;;;5033767;28;20451;-59
2023/08/10 08:40:53;;;;;;;2.03;1.03;;;25.80;51.00;;;;;;5034591;28;20489;-59
2023/08/10 08:43:20;;;;;;;1.60;1.00;;;26.00;52.50;;;;;;5033724;28;20469;-59
2023/08/10 08:45:47;;;;;;;3.67;1.30;;;26.20;51.70;;;;;;5033695;28;20516;-59
2023/08/10 08:48:15;;;;;;;5.97;1.30;;;26.40;50.80;;;;;;5033686;28;20470;-59
2023/08/10 08:50:43;;;;;;;3.40;1.10;;;26.60;50.60;;;;;;5033672;28;20534;-60
2023/08/10 08:53:12;;;;;;;4.20;1.00;;;26.80;51.30;;;;;;5033604;28;20445;-59
2023/08/10 08:55:39;;;;;;;4.57;1.40;;;27.00;50.40;;;;;;5033589;28;20447;-59
2023/08/10 08:58:06;;;;;;;3.50;1.07;;;27.20;50.40;;;;;;5034346;28;20450;-59
2023/08/10 09:00:33;;;;;;;5.63;1.10;;;27.40;49.40;;;;;;5033503;28;20490;-59
2023/08/10 09:03:00;;;;;;;2.43;1.30;;;27.50;47.50;;;;;;5033066;28;20963;-60
2023/08/10 09:05:28;;;;;;;2.30;1.20;;;27.60;47.30;;;;;;5033678;28;20517;-59
2023/08/10 09:07:55;;;;;;;2.60;1.00;;;27.70;45.50;;;;;;5033738;28;20445;-60
2023/08/10 09:10:23;;;;;;;1.47;0.93;;;27.80;44.90;;;;;;5033472;28;20462;-60
2023/08/10 09:12:50;;;;;;;5.37;1.73;;;28.00;44.00;;;;;;5033664;28;20446;-60
2023/08/10 09:15:18;;;;;;;2.63;1.07;;;28.20;44.00;;;;;;5033122;28;20945;-59
2023/08/10 09:17:47;;;;;;;1.23;0.90;;;28.20;42.10;;;;;;5033093;28;20955;-59
2023/08/10 09:20:19;;;;;;;3.13;1.00;;;28.20;42.50;;;;;;5033229;28;20502;-59
2023/08/10 09:22:47;;;;;;;2.83;1.23;;;28.30;44.00;;;;;;5034239;28;20453;-59
2023/08/10 09:25:13;;;;;;;2.40;1.30;;;28.60;45.50;;;;;;5033215;28;20452;-59
2023/08/10 09:27:41;;;;;;;1.90;0.93;;;28.80;44.10;;;;;;5033226;28;20454;-57
2023/08/10 09:30:09;;;;;;;1.33;1.03;;;29.10;41.30;;;;;;5032946;28;20541;-57
2023/08/10 09:32:36;;;;;;;1.70;0.90;;;29.30;41.00;;;;;;5033220;28;20453;-58
2023/08/10 09:35:03;;;;;;;2.03;0.93;;;29.40;41.00;;;;;;5032944;28;20441;-57
2023/08/10 09:37:31;;;;;;;1.33;0.80;;;29.60;41.80;;;;;;5033142;28;20472;-57
2023/08/10 09:40:01;;;;;;;1.93;0.80;;;29.80;42.80;;;;;;5032991;28;20482;-58
2023/08/10 09:42:31;;;;;;;2.13;1.00;;;30.00;43.10;;;;;;5033130;28;20431;-57
2023/08/10 09:45:00;;;;;;;2.80;1.27;;;30.30;43.20;;;;;;5032938;28;20442;-58
2023/08/10 09:47:27;;;;;;;3.00;0.80;;;30.50;41.00;;;;;;5033119;28;20442;-58
2023/08/10 09:49:56;;;;;;;3.23;1.33;;;30.70;40.40;;;;;;5033197;28;20433;-58
2023/08/10 09:52:23;;;;;;;3.67;1.73;;;31.00;41.00;;;;;;5032885;28;20441;-58
2023/08/10 09:54:51;;;;;;;1.03;0.93;;;31.20;41.30;;;;;;5033129;28;20460;-58
2023/08/10 09:57:19;;;;;;;1.60;1.10;;;31.40;40.90;;;;;;5032633;28;20438;-58
2023/08/10 09:59:47;;;;;;;3.67;1.30;;;31.60;40.70;;;;;;5032746;28;20486;-58
2023/08/10 10:02:16;;;;;;;1.57;1.00;;;31.80;39.00;;;;;;5032738;28;20884;-58
2023/08/10 10:04:44;;;;;;;1.93;0.97;;;32.00;37.80;;;;;;5032706;28;20442;-58
2023/08/10 10:07:12;;;;;;;2.90;1.13;;;32.30;38.20;;;;;;5032987;28;20813;-59
2023/08/10 10:09:40;;;;;;;5.70;1.70;;;32.50;38.00;;;;;;5032718;28;20438;-58
2023/08/10 10:12:10;;;;;;;2.90;1.50;;;32.80;37.60;;;;;;5032618;28;20449;-59
2023/08/10 10:14:40;;;;;;;5.93;2.27;;;33.10;36.50;;;;;;5032843;28;20886;-59
2023/08/10 10:17:10;;;;;;;2.77;1.60;;;33.50;36.50;;;;;;5032852;28;20425;-59
2023/08/10 10:19:39;;;;;;;2.40;1.50;;;33.80;35.90;;;;;;5032672;28;20489;-59
2023/08/10 10:22:06;;;;;;;3.37;1.50;;;34.10;33.20;;;;;;5032798;28;20452;-59
2023/08/10 10:24:34;;;;;;;3.83;1.20;;;34.40;31.70;;;;;;5032614;28;20449;-59
2023/08/10 10:27:05;;;;;;;2.47;1.40;;;34.80;31.60;;;;;;5032351;28;20595;-58
2023/08/10 10:29:37;;;;;;;2.90;1.50;;;35.10;32.60;;;;;;5035979;28;20190;-58
2023/08/10 10:32:05;;;;;;;1.77;1.00;;;35.50;32.80;;;;;;5036158;28;20251;-59
2023/08/10 10:34:33;;;;;;;2.30;1.50;;;35.80;32.10;;;;;;5035889;28;20235;-59
2023/08/10 10:37:08;;;;;;;3.63;1.75;;;36.20;31.50;;;;;;5035799;28;20751;-59
2023/08/10 10:39:35;;;;;;;2.63;0.98;;;36.60;30.70;;;;;;5035917;28;20693;-59
2023/08/10 10:42:03;;;;;;;3.42;1.27;;;37.00;29.70;;;;;;5035728;28;20712;-59
2023/08/10 10:45:05;;;;;;;3.80;1.17;;;37.50;29.20;;;;;;5036015;28;20277;-59
2023/08/10 10:47:39;;;;;;;2.13;1.30;;;38.00;26.60;;;;;;5036036;28;20274;-59
2023/08/10 10:50:17;;;;;;;1.83;1.20;;;38.20;24.60;;;;;;5035789;28;20604;-59
2023/08/10 10:52:54;;;;;;;1.50;1.17;;;38.50;26.20;;;;;;5035952;28;20207;-59
2023/08/10 10:55:21;;;;;;;2.85;1.73;;;38.90;26.60;;;;;;5036345;28;20222;-59
2023/08/10 10:57:49;;;;;;;1.98;1.17;;;39.40;25.70;;;;;;5036551;28;20265;-59
2023/08/10 11:00:17;;;;;;;1.88;1.20;;;39.80;25.00;;;;;;5035566;28;20261;-59
2023/08/10 11:02:44;;;;;;;1.55;1.05;;;40.30;25.20;;;;;;5035517;28;20249;-59
2023/08/10 11:05:12;;;;;;;1.75;1.25;;;40.70;24.90;;;;;;5035659;28;20199;-59
2023/08/10 11:07:41;;;;;;;2.25;1.10;;;41.10;24.40;;;;;;5035737;28;20231;-59
2023/08/10 11:10:10;;;;;;;2.65;1.42;;;41.50;24.10;;;;;;5035461;28;20223;-59
2023/08/10 11:12:38;;;;;;;3.28;1.15;;;41.90;23.80;;;;;;5035381;28;20207;-59
2023/08/10 11:15:07;;;;;;;1.27;1.08;;;42.30;23.60;;;;;;5035466;28;20198;-59
2023/08/10 11:17:34;;;;;;;1.95;1.00;;;42.60;21.50;;;;;;5034998;28;20712;-59
2023/08/10 11:20:01;;;;;;;1.65;1.27;;;42.90;20.70;;;;;;5035233;28;20226;-59
2023/08/10 11:22:28;;;;;;;3.42;1.13;;;43.20;21.20;;;;;;5035350;28;20257;-60
2023/08/10 11:24:54;;;;;;;3.70;1.23;;;43.40;19.80;;;;;;5035186;28;20238;-60
2023/08/10 11:27:22;;;;;;;1.85;1.27;;;43.50;20.40;;;;;;5035166;28;20203;-60
2023/08/10 11:29:49;;;;;;;2.55;1.30;;;43.60;20.10;;;;;;5034954;28;20230;-60
2023/08/10 11:32:16;;;;;;;2.28;1.13;;;43.70;19.70;;;;;;5034764;28;20203;-60
2023/08/10 11:34:43;;;;;;;2.60;1.25;;;43.70;20.30;;;;;;5035053;28;20214;-60
2023/08/10 11:37:09;;;;;;;0.95;0.82;;;43.90;21.00;;;;;;5034759;28;20551;-60
2023/08/10 11:39:36;;;;;;;1.60;1.10;;;44.10;20.90;;;;;;5033546;28;20677;-60
2023/08/10 11:42:03;;;;;;;1.65;1.08;;;44.00;20.80;;;;;;5034590;28;20637;-60
2023/08/10 11:44:33;;;;;;;1.52;0.77;;;43.70;21.20;;;;;;5034865;28;20199;-60
2023/08/10 11:47:00;;;;;;;1.92;0.90;;;43.70;21.70;;;;;;5035677;28;20249;-58
2023/08/10 11:49:29;;;;;;;1.90;1.10;;;44.00;20.50;;;;;;5034361;28;20226;-59
2023/08/10 11:51:59;;;;;;;2.25;1.40;;;44.30;19.80;;;;;;5034667;28;20297;-59
2023/08/10 11:54:30;;;;;;;3.42;1.10;;;44.70;20.60;;;;;;5034656;28;20215;-59
2023/08/10 11:56:56;;;;;;;2.33;1.08;;;45.10;20.40;;;;;;5034656;28;20188;-59
2023/08/10 11:59:23;;;;;;;1.27;1.00;;;45.40;20.30;;;;;;5034524;28;20199;-59
2023/08/10 12:01:57;;;;;;;1.25;0.95;;;45.80;19.60;;;;;;5034396;28;20246;-59
2023/08/10 12:04:29;;;;;;;3.88;1.20;;;46.10;19.30;;;;;;5034511;28;20187;-59
2023/08/10 12:06:56;;;;;;;2.65;1.30;;;46.30;18.00;;;;;;5034499;28;20195;-59
2023/08/10 12:09:28;;;;;;;3.95;1.20;;;46.10;17.90;;;;;;5034314;28;20210;-59
2023/08/10 12:11:55;;;;;;;1.27;1.00;;;45.90;18.90;;;;;;5034481;28;20373;-59
2023/08/10 12:14:23;;;;;;;1.67;1.20;;;46.10;19.50;;;;;;5034016;28;20546;-59
2023/08/10 12:16:49;;;;;;;4.30;1.27;;;46.30;19.30;;;;;;5034274;28;20207;-59
2023/08/10 12:19:17;;;;;;;1.83;1.00;;;46.50;18.80;;;;;;5034311;28;20207;-59
2023/08/10 12:21:45;;;;;;;3.28;1.48;;;46.80;18.50;;;;;;5034178;28;20230;-59
2023/08/10 12:24:12;;;;;;;1.58;1.10;;;47.10;17.70;;;;;;5034138;28;20203;-59
2023/08/10 12:26:39;;;;;;;2.50;1.08;;;47.40;16.90;;;;;;5033744;28;20673;-59
2023/08/10 12:29:06;;;;;;;2.25;1.15;;;47.50;16.60;;;;;;5034493;28;20203;-59
2023/08/10 12:31:32;;;;;;;1.52;1.02;;;47.60;16.40;;;;;;5033922;28;20231;-59
2023/08/10 12:33:59;;;;;;;1.50;0.95;;;47.70;16.50;;;;;;5033740;28;20206;-59
2023/08/10 12:36:27;;;;;;;1.83;1.20;;;47.90;16.60;;;;;;5033678;28;20677;-59
2023/08/10 12:38:55;;;;;;;1.67;1.30;;;48.20;16.30;;;;;;5033942;28;20207;-59
2023/08/10 12:41:22;;;;;;;1.70;1.05;;;48.30;17.00;;;;;;5033850;28;20598;-59
2023/08/10 12:43:48;;;;;;;2.00;1.10;;;48.60;17.40;;;;;;5033636;28;20722;-59
2023/08/10 12:46:18;;;;;;;2.30;1.00;;;48.80;16.90;;;;;;5033823;28;20211;-59
2023/08/10 12:48:46;;;;;;;0.80;0.73;;;49.00;16.60;;;;;;5033954;28;20281;-59
2023/08/10 12:51:12;;;;;;;1.75;1.17;;;49.40;16.80;;;;;;5033403;28;20226;-59